sensor_id;sensor_type;location;lat;lon;timestamp;temperature;humidity
11426;DHT22;5769;47.998;7.788;2023-11-19T00:01:19;19.10;68.70
11426;DHT22;5769;47.998;7.788;2023-11-19T00:03:46;19.10;68.70
11426;DHT22;5769;47.998;7.788;2023-11-19T00:06:13;19.10;69.40
11426;DHT22;5769;47.998;7.788;2023-11-19T00:08:40;19.10;68.70
11426;DHT22;5769;47.998;7.788;2023-11-19T00:11:10;19.10;68.70
11426;DHT22;5769;47.998;7.788;2023-11-19T00:13:42;19.10;68.70
11426;DHT22;5769;47.998;7.788;2023-11-19T00:16:11;19.10;68.70
11426;DHT22;5769;47.998;7.788;2023-11-19T00:18:43;19.10;68.70
11426;DHT22;5769;47.998;7.788;2023-11-19T00:21:10;19.10;68.70
11426;DHT22;5769;47.998;7.788;2023-11-19T00:23:37;19.10;68.80
11426;DHT22;5769;47.998;7.788;2023-11-19T00:26:04;19.10;68.80
11426;DHT22;5769;47.998;7.788;2023-11-19T00:28:32;19.10;68.70
11426;DHT22;5769;47.998;7.788;2023-11-19T00:31:02;19.10;68.70
11426;DHT22;5769;47.998;7.788;2023-11-19T00:33:29;19.10;68.80
11426;DHT22;5769;47.998;7.788;2023-11-19T00:35:56;19.10;68.80
11426;DHT22;5769;47.998;7.788;2023-11-19T00:38:23;19.10;68.80
11426;DHT22;5769;47.998;7.788;2023-11-19T00:40:50;19.10;68.70
11426;DHT22;5769;47.998;7.788;2023-11-19T00:43:16;19.10;68.80
11426;DHT22;5769;47.998;7.788;2023-11-19T00:45:44;19.10;68.70
11426;DHT22;5769;47.998;7.788;2023-11-19T00:48:12;19.10;68.70
11426;DHT22;5769;47.998;7.788;2023-11-19T00:50:39;19.10;68.70
11426;DHT22;5769;47.998;7.788;2023-11-19T00:53:09;19.10;68.70
11426;DHT22;5769;47.998;7.788;2023-11-19T00:55:36;19.10;68.70
11426;DHT22;5769;47.998;7.788;2023-11-19T00:58:03;19.10;68.70
11426;DHT22;5769;47.998;7.788;2023-11-19T01:00:29;19.10;68.70
11426;DHT22;5769;47.998;7.788;2023-11-19T01:02:58;19.10;68.70
11426;DHT22;5769;47.998;7.788;2023-11-19T01:05:31;19.10;68.80
11426;DHT22;5769;47.998;7.788;2023-11-19T01:07:59;19.10;68.80
11426;DHT22;5769;47.998;7.788;2023-11-19T01:10:26;19.10;68.70
11426;DHT22;5769;47.998;7.788;2023-11-19T01:12:54;19.10;68.70
11426;DHT22;5769;47.998;7.788;2023-11-19T01:15:21;19.10;68.80
11426;DHT22;5769;47.998;7.788;2023-11-19T01:17:48;19.10;68.70
11426;DHT22;5769;47.998;7.788;2023-11-19T01:20:15;19.10;68.70
11426;DHT22;5769;47.998;7.788;2023-11-19T01:22:47;19.10;68.70
11426;DHT22;5769;47.998;7.788;2023-11-19T01:25:15;19.10;68.70
11426;DHT22;5769;47.998;7.788;2023-11-19T01:27:41;19.10;68.80
11426;DHT22;5769;47.998;7.788;2023-11-19T01:30:09;19.10;68.70
11426;DHT22;5769;47.998;7.788;2023-11-19T01:32:38;19.10;68.70
11426;DHT22;5769;47.998;7.788;2023-11-19T01:35:06;19.10;68.70
11426;DHT22;5769;47.998;7.788;2023-11-19T01:37:33;19.10;68.80
11426;DHT22;5769;47.998;7.788;2023-11-19T01:40:02;19.10;68.70
11426;DHT22;5769;47.998;7.788;2023-11-19T01:42:30;19.10;68.80
11426;DHT22;5769;47.998;7.788;2023-11-19T01:45:02;19.10;68.80
11426;DHT22;5769;47.998;7.788;2023-11-19T01:47:32;19.10;68.80
11426;DHT22;5769;47.998;7.788;2023-11-19T01:49:59;19.10;68.80
11426;DHT22;5769;47.998;7.788;2023-11-19T01:52:26;19.10;68.80
11426;DHT22;5769;47.998;7.788;2023-11-19T01:54:54;19.10;68.70
11426;DHT22;5769;47.998;7.788;2023-11-19T01:57:23;19.10;68.80
11426;DHT22;5769;47.998;7.788;2023-11-19T01:59:50;19.10;68.80
11426;DHT22;5769;47.998;7.788;2023-11-19T02:02:18;19.10;68.80
11426;DHT22;5769;47.998;7.788;2023-11-19T02:04:46;19.10;68.80
11426;DHT22;5769;47.998;7.788;2023-11-19T02:07:14;19.10;68.80
11426;DHT22;5769;47.998;7.788;2023-11-19T02:09:42;19.10;68.80
11426;DHT22;5769;47.998;7.788;2023-11-19T02:12:09;19.10;68.80
11426;DHT22;5769;47.998;7.788;2023-11-19T02:14:38;19.10;68.80
11426;DHT22;5769;47.998;7.788;2023-11-19T02:17:05;19.10;68.80
11426;DHT22;5769;47.998;7.788;2023-11-19T02:19:32;19.10;68.80
11426;DHT22;5769;47.998;7.788;2023-11-19T02:21:59;19.10;68.80
11426;DHT22;5769;47.998;7.788;2023-11-19T02:24:27;19.10;68.80
11426;DHT22;5769;47.998;7.788;2023-11-19T02:27:02;19.10;68.80
11426;DHT22;5769;47.998;7.788;2023-11-19T02:29:30;19.10;68.80
11426;DHT22;5769;47.998;7.788;2023-11-19T02:31:57;19.10;68.80
11426;DHT22;5769;47.998;7.788;2023-11-19T02:34:24;19.10;68.80
11426;DHT22;5769;47.998;7.788;2023-11-19T02:36:51;19.10;68.80
11426;DHT22;5769;47.998;7.788;2023-11-19T02:39:19;19.10;68.80
11426;DHT22;5769;47.998;7.788;2023-11-19T02:41:47;19.10;68.80
11426;DHT22;5769;47.998;7.788;2023-11-19T02:44:16;19.10;68.80
11426;DHT22;5769;47.998;7.788;2023-11-19T02:46:44;19.10;68.80
11426;DHT22;5769;47.998;7.788;2023-11-19T02:49:13;19.10;68.80
11426;DHT22;5769;47.998;7.788;2023-11-19T02:51:40;19.10;68.80
11426;DHT22;5769;47.998;7.788;2023-11-19T02:54:07;19.10;68.80
11426;DHT22;5769;47.998;7.788;2023-11-19T02:56:34;19.10;68.80
11426;DHT22;5769;47.998;7.788;2023-11-19T02:59:02;19.10;68.80
11426;DHT22;5769;47.998;7.788;2023-11-19T03:01:34;19.10;69.60
11426;DHT22;5769;47.998;7.788;2023-11-19T03:04:03;19.10;68.80
11426;DHT22;5769;47.998;7.788;2023-11-19T03:06:30;19.10;68.80
11426;DHT22;5769;47.998;7.788;2023-11-19T03:08:57;19.10;68.80
11426;DHT22;5769;47.998;7.788;2023-11-19T03:11:24;19.10;68.80
11426;DHT22;5769;47.998;7.788;2023-11-19T03:13:51;19.10;68.80
11426;DHT22;5769;47.998;7.788;2023-11-19T03:16:17;19.00;68.70
11426;DHT22;5769;47.998;7.788;2023-11-19T03:18:44;19.10;68.90
11426;DHT22;5769;47.998;7.788;2023-11-19T03:21:12;19.10;68.80
11426;DHT22;5769;47.998;7.788;2023-11-19T03:23:39;19.10;68.80
11426;DHT22;5769;47.998;7.788;2023-11-19T03:26:06;19.10;68.80
11426;DHT22;5769;47.998;7.788;2023-11-19T03:28:34;19.10;68.80
11426;DHT22;5769;47.998;7.788;2023-11-19T03:31:04;19.10;68.80
11426;DHT22;5769;47.998;7.788;2023-11-19T03:33:33;19.10;68.80
11426;DHT22;5769;47.998;7.788;2023-11-19T03:36:00;19.10;68.90
11426;DHT22;5769;47.998;7.788;2023-11-19T03:38:28;19.10;68.80
11426;DHT22;5769;47.998;7.788;2023-11-19T03:40:55;19.10;68.90
11426;DHT22;5769;47.998;7.788;2023-11-19T03:43:22;19.10;68.90
11426;DHT22;5769;47.998;7.788;2023-11-19T03:45:48;19.10;68.90
11426;DHT22;5769;47.998;7.788;2023-11-19T03:48:15;19.00;68.80
11426;DHT22;5769;47.998;7.788;2023-11-19T03:50:42;19.10;68.90
11426;DHT22;5769;47.998;7.788;2023-11-19T03:53:09;19.00;68.80
11426;DHT22;5769;47.998;7.788;2023-11-19T03:55:37;19.10;68.90
11426;DHT22;5769;47.998;7.788;2023-11-19T03:58:04;19.10;68.90
11426;DHT22;5769;47.998;7.788;2023-11-19T04:00:31;19.10;68.90
11426;DHT22;5769;47.998;7.788;2023-11-19T04:02:58;19.00;68.80
11426;DHT22;5769;47.998;7.788;2023-11-19T04:05:27;19.10;68.90
11426;DHT22;5769;47.998;7.788;2023-11-19T04:07:54;19.10;68.90
11426;DHT22;5769;47.998;7.788;2023-11-19T04:10:20;19.10;68.90
11426;DHT22;5769;47.998;7.788;2023-11-19T04:12:49;19.10;68.90
11426;DHT22;5769;47.998;7.788;2023-11-19T04:15:16;19.10;68.90
11426;DHT22;5769;47.998;7.788;2023-11-19T04:17:43;19.10;68.90
11426;DHT22;5769;47.998;7.788;2023-11-19T04:20:10;19.00;68.80
11426;DHT22;5769;47.998;7.788;2023-11-19T04:22:39;19.10;68.90
11426;DHT22;5769;47.998;7.788;2023-11-19T04:25:07;19.10;68.90
11426;DHT22;5769;47.998;7.788;2023-11-19T04:27:33;19.10;68.90
11426;DHT22;5769;47.998;7.788;2023-11-19T04:30:02;19.00;68.80
11426;DHT22;5769;47.998;7.788;2023-11-19T04:32:29;19.00;68.80
11426;DHT22;5769;47.998;7.788;2023-11-19T04:34:56;19.10;68.90
11426;DHT22;5769;47.998;7.788;2023-11-19T04:37:22;19.10;68.90
11426;DHT22;5769;47.998;7.788;2023-11-19T04:39:50;19.10;68.90
11426;DHT22;5769;47.998;7.788;2023-11-19T04:42:16;19.10;68.90
11426;DHT22;5769;47.998;7.788;2023-11-19T04:44:43;19.10;68.90
11426;DHT22;5769;47.998;7.788;2023-11-19T04:47:11;19.00;68.80
11426;DHT22;5769;47.998;7.788;2023-11-19T04:49:40;19.10;68.90
11426;DHT22;5769;47.998;7.788;2023-11-19T04:52:08;19.10;69.60
11426;DHT22;5769;47.998;7.788;2023-11-19T04:54:35;19.00;68.80
11426;DHT22;5769;47.998;7.788;2023-11-19T04:57:02;19.00;68.80
11426;DHT22;5769;47.998;7.788;2023-11-19T04:59:29;19.10;68.90
11426;DHT22;5769;47.998;7.788;2023-11-19T05:01:56;19.10;68.90
11426;DHT22;5769;47.998;7.788;2023-11-19T05:04:24;19.00;68.80
11426;DHT22;5769;47.998;7.788;2023-11-19T05:06:51;19.10;68.90
11426;DHT22;5769;47.998;7.788;2023-11-19T05:09:19;19.10;68.90
11426;DHT22;5769;47.998;7.788;2023-11-19T05:11:46;19.10;68.90
11426;DHT22;5769;47.998;7.788;2023-11-19T05:14:12;19.00;68.90
11426;DHT22;5769;47.998;7.788;2023-11-19T05:16:39;19.00;68.90
11426;DHT22;5769;47.998;7.788;2023-11-19T05:19:06;19.10;68.90
11426;DHT22;5769;47.998;7.788;2023-11-19T05:21:34;19.00;68.90
11426;DHT22;5769;47.998;7.788;2023-11-19T05:24:01;19.00;68.90
11426;DHT22;5769;47.998;7.788;2023-11-19T05:26:30;19.00;68.90
11426;DHT22;5769;47.998;7.788;2023-11-19T05:28:57;19.00;68.90
11426;DHT22;5769;47.998;7.788;2023-11-19T05:31:24;19.00;68.80
11426;DHT22;5769;47.998;7.788;2023-11-19T05:33:50;19.10;68.90
11426;DHT22;5769;47.998;7.788;2023-11-19T05:36:17;19.10;68.90
11426;DHT22;5769;47.998;7.788;2023-11-19T05:38:45;19.00;68.90
11426;DHT22;5769;47.998;7.788;2023-11-19T05:41:12;19.00;68.90
11426;DHT22;5769;47.998;7.788;2023-11-19T05:43:39;19.10;68.90
11426;DHT22;5769;47.998;7.788;2023-11-19T05:46:06;19.00;68.90
11426;DHT22;5769;47.998;7.788;2023-11-19T05:48:34;19.10;68.90
11426;DHT22;5769;47.998;7.788;2023-11-19T05:51:01;19.10;68.90
11426;DHT22;5769;47.998;7.788;2023-11-19T05:53:28;19.10;69.00
11426;DHT22;5769;47.998;7.788;2023-11-19T05:55:57;19.10;69.00
11426;DHT22;5769;47.998;7.788;2023-11-19T05:58:24;19.10;68.90
11426;DHT22;5769;47.998;7.788;2023-11-19T06:00:54;19.10;68.90
11426;DHT22;5769;47.998;7.788;2023-11-19T06:03:21;19.00;68.90
11426;DHT22;5769;47.998;7.788;2023-11-19T06:05:48;19.00;68.90
11426;DHT22;5769;47.998;7.788;2023-11-19T06:08:15;19.10;69.00
11426;DHT22;5769;47.998;7.788;2023-11-19T06:10:42;19.00;68.90
11426;DHT22;5769;47.998;7.788;2023-11-19T06:13:13;19.00;68.90
11426;DHT22;5769;47.998;7.788;2023-11-19T06:15:40;19.00;68.90
11426;DHT22;5769;47.998;7.788;2023-11-19T06:18:07;19.00;68.90
11426;DHT22;5769;47.998;7.788;2023-11-19T06:20:34;19.00;69.00
11426;DHT22;5769;47.998;7.788;2023-11-19T06:23:03;19.10;69.10
11426;DHT22;5769;47.998;7.788;2023-11-19T06:25:31;19.10;69.00
11426;DHT22;5769;47.998;7.788;2023-11-19T06:28:01;19.10;69.00
11426;DHT22;5769;47.998;7.788;2023-11-19T06:30:33;19.00;68.90
11426;DHT22;5769;47.998;7.788;2023-11-19T06:33:01;19.10;69.00
11426;DHT22;5769;47.998;7.788;2023-11-19T06:35:28;19.00;68.90
11426;DHT22;5769;47.998;7.788;2023-11-19T06:38:01;19.00;69.00
11426;DHT22;5769;47.998;7.788;2023-11-19T06:40:28;19.00;68.90
11426;DHT22;5769;47.998;7.788;2023-11-19T06:42:55;19.00;69.00
11426;DHT22;5769;47.998;7.788;2023-11-19T06:45:22;19.00;68.90
11426;DHT22;5769;47.998;7.788;2023-11-19T06:47:50;19.00;68.90
11426;DHT22;5769;47.998;7.788;2023-11-19T06:50:17;19.00;69.00
11426;DHT22;5769;47.998;7.788;2023-11-19T06:52:44;19.00;69.00
11426;DHT22;5769;47.998;7.788;2023-11-19T06:55:11;19.00;69.00
11426;DHT22;5769;47.998;7.788;2023-11-19T06:57:38;19.00;69.00
11426;DHT22;5769;47.998;7.788;2023-11-19T07:00:06;19.00;68.90
11426;DHT22;5769;47.998;7.788;2023-11-19T07:02:34;19.00;69.00
11426;DHT22;5769;47.998;7.788;2023-11-19T07:05:02;19.00;69.00
11426;DHT22;5769;47.998;7.788;2023-11-19T07:07:30;19.00;69.00
11426;DHT22;5769;47.998;7.788;2023-11-19T07:09:57;19.00;69.00
11426;DHT22;5769;47.998;7.788;2023-11-19T07:12:24;19.00;69.00
11426;DHT22;5769;47.998;7.788;2023-11-19T07:14:52;19.00;69.00
11426;DHT22;5769;47.998;7.788;2023-11-19T07:17:20;19.00;69.00
11426;DHT22;5769;47.998;7.788;2023-11-19T07:19:49;19.00;69.00
11426;DHT22;5769;47.998;7.788;2023-11-19T07:22:16;19.00;69.00
11426;DHT22;5769;47.998;7.788;2023-11-19T07:24:43;19.00;69.00
11426;DHT22;5769;47.998;7.788;2023-11-19T07:27:10;19.00;69.00
11426;DHT22;5769;47.998;7.788;2023-11-19T07:29:37;19.00;69.00
11426;DHT22;5769;47.998;7.788;2023-11-19T07:32:07;19.00;69.00
11426;DHT22;5769;47.998;7.788;2023-11-19T07:34:34;19.00;69.00
11426;DHT22;5769;47.998;7.788;2023-11-19T07:37:01;19.00;69.00
11426;DHT22;5769;47.998;7.788;2023-11-19T07:39:30;19.00;69.00
11426;DHT22;5769;47.998;7.788;2023-11-19T07:41:59;19.00;69.00
11426;DHT22;5769;47.998;7.788;2023-11-19T07:44:29;19.00;69.00
11426;DHT22;5769;47.998;7.788;2023-11-19T07:47:05;19.00;69.00
11426;DHT22;5769;47.998;7.788;2023-11-19T07:49:40;19.00;69.10
11426;DHT22;5769;47.998;7.788;2023-11-19T07:52:13;19.00;69.00
11426;DHT22;5769;47.998;7.788;2023-11-19T07:54:42;19.00;69.00
11426;DHT22;5769;47.998;7.788;2023-11-19T07:57:14;19.00;69.00
11426;DHT22;5769;47.998;7.788;2023-11-19T07:59:51;19.00;69.10
11426;DHT22;5769;47.998;7.788;2023-11-19T08:02:19;19.00;69.10
11426;DHT22;5769;47.998;7.788;2023-11-19T08:04:49;19.00;69.10
11426;DHT22;5769;47.998;7.788;2023-11-19T08:07:18;19.00;69.10
11426;DHT22;5769;47.998;7.788;2023-11-19T08:09:51;19.00;69.10
11426;DHT22;5769;47.998;7.788;2023-11-19T08:12:18;19.00;69.10
11426;DHT22;5769;47.998;7.788;2023-11-19T08:14:45;19.00;69.10
11426;DHT22;5769;47.998;7.788;2023-11-19T08:17:12;19.00;69.10
11426;DHT22;5769;47.998;7.788;2023-11-19T08:19:38;19.00;69.10
11426;DHT22;5769;47.998;7.788;2023-11-19T08:22:07;19.00;69.20
11426;DHT22;5769;47.998;7.788;2023-11-19T08:24:34;19.00;69.30
11426;DHT22;5769;47.998;7.788;2023-11-19T08:27:04;19.00;69.40
11426;DHT22;5769;47.998;7.788;2023-11-19T08:29:31;19.00;69.50
11426;DHT22;5769;47.998;7.788;2023-11-19T08:32:00;19.00;69.50
11426;DHT22;5769;47.998;7.788;2023-11-19T08:34:27;19.00;69.50
11426;DHT22;5769;47.998;7.788;2023-11-19T08:36:54;19.10;69.60
11426;DHT22;5769;47.998;7.788;2023-11-19T08:39:21;19.10;69.50
11426;DHT22;5769;47.998;7.788;2023-11-19T08:41:48;19.10;69.50
11426;DHT22;5769;47.998;7.788;2023-11-19T08:44:18;19.00;69.40
11426;DHT22;5769;47.998;7.788;2023-11-19T08:46:50;19.00;69.50
11426;DHT22;5769;47.998;7.788;2023-11-19T08:49:19;19.00;69.50
11426;DHT22;5769;47.998;7.788;2023-11-19T08:51:46;19.00;69.50
11426;DHT22;5769;47.998;7.788;2023-11-19T08:54:15;19.00;69.50
11426;DHT22;5769;47.998;7.788;2023-11-19T08:56:42;19.00;69.80
11426;DHT22;5769;47.998;7.788;2023-11-19T08:59:11;19.00;70.20
11426;DHT22;5769;47.998;7.788;2023-11-19T09:01:41;19.00;69.50
11426;DHT22;5769;47.998;7.788;2023-11-19T09:04:09;19.00;69.50
11426;DHT22;5769;47.998;7.788;2023-11-19T09:06:43;19.00;69.50
11426;DHT22;5769;47.998;7.788;2023-11-19T09:09:10;19.00;69.50
11426;DHT22;5769;47.998;7.788;2023-11-19T09:11:41;19.00;69.50
11426;DHT22;5769;47.998;7.788;2023-11-19T09:14:21;19.00;69.50
11426;DHT22;5769;47.998;7.788;2023-11-19T09:16:52;19.00;69.60
11426;DHT22;5769;47.998;7.788;2023-11-19T09:19:19;19.00;69.50
11426;DHT22;5769;47.998;7.788;2023-11-19T09:21:46;19.00;69.50
11426;DHT22;5769;47.998;7.788;2023-11-19T09:24:13;19.00;69.50
11426;DHT22;5769;47.998;7.788;2023-11-19T09:26:40;19.00;69.50
11426;DHT22;5769;47.998;7.788;2023-11-19T09:29:07;19.00;69.60
11426;DHT22;5769;47.998;7.788;2023-11-19T09:31:34;19.00;69.50
11426;DHT22;5769;47.998;7.788;2023-11-19T09:34:02;19.00;69.50
11426;DHT22;5769;47.998;7.788;2023-11-19T09:36:32;19.00;69.50
11426;DHT22;5769;47.998;7.788;2023-11-19T09:38:59;19.00;69.50
11426;DHT22;5769;47.998;7.788;2023-11-19T09:41:27;19.00;69.60
11426;DHT22;5769;47.998;7.788;2023-11-19T09:43:54;19.00;69.60
11426;DHT22;5769;47.998;7.788;2023-11-19T09:46:22;19.00;69.60
11426;DHT22;5769;47.998;7.788;2023-11-19T09:48:53;19.00;69.60
11426;DHT22;5769;47.998;7.788;2023-11-19T09:51:23;19.00;69.60
11426;DHT22;5769;47.998;7.788;2023-11-19T09:53:51;19.00;69.60
11426;DHT22;5769;47.998;7.788;2023-11-19T09:56:18;19.00;69.60
11426;DHT22;5769;47.998;7.788;2023-11-19T09:58:45;19.00;69.60
11426;DHT22;5769;47.998;7.788;2023-11-19T10:01:12;19.00;69.60
11426;DHT22;5769;47.998;7.788;2023-11-19T10:03:39;19.00;69.60
11426;DHT22;5769;47.998;7.788;2023-11-19T10:06:09;19.00;69.60
11426;DHT22;5769;47.998;7.788;2023-11-19T10:08:41;19.00;69.60
11426;DHT22;5769;47.998;7.788;2023-11-19T10:11:09;19.00;69.60
11426;DHT22;5769;47.998;7.788;2023-11-19T10:13:38;19.00;69.60
11426;DHT22;5769;47.998;7.788;2023-11-19T10:16:08;19.00;69.60
11426;DHT22;5769;47.998;7.788;2023-11-19T10:18:37;19.00;69.60
11426;DHT22;5769;47.998;7.788;2023-11-19T10:21:04;19.00;69.60
11426;DHT22;5769;47.998;7.788;2023-11-19T10:23:48;19.00;69.60
11426;DHT22;5769;47.998;7.788;2023-11-19T10:26:15;19.00;69.70
11426;DHT22;5769;47.998;7.788;2023-11-19T10:28:42;19.00;69.60
11426;DHT22;5769;47.998;7.788;2023-11-19T10:31:11;19.00;69.60
11426;DHT22;5769;47.998;7.788;2023-11-19T10:33:38;19.00;69.60
11426;DHT22;5769;47.998;7.788;2023-11-19T10:36:06;19.10;69.70
11426;DHT22;5769;47.998;7.788;2023-11-19T10:38:36;19.00;69.70
11426;DHT22;5769;47.998;7.788;2023-11-19T10:41:04;19.00;69.70
11426;DHT22;5769;47.998;7.788;2023-11-19T10:43:42;19.00;69.70
11426;DHT22;5769;47.998;7.788;2023-11-19T10:46:11;19.00;69.80
11426;DHT22;5769;47.998;7.788;2023-11-19T10:48:38;19.00;69.90
11426;DHT22;5769;47.998;7.788;2023-11-19T10:51:07;19.00;70.00
11426;DHT22;5769;47.998;7.788;2023-11-19T10:53:46;19.00;70.30
11426;DHT22;5769;47.998;7.788;2023-11-19T10:56:19;19.10;70.80
11426;DHT22;5769;47.998;7.788;2023-11-19T10:58:49;19.10;71.10
11426;DHT22;5769;47.998;7.788;2023-11-19T11:01:23;19.10;71.30
11426;DHT22;5769;47.998;7.788;2023-11-19T11:03:51;19.10;71.60
11426;DHT22;5769;47.998;7.788;2023-11-19T11:06:20;19.10;71.80
11426;DHT22;5769;47.998;7.788;2023-11-19T11:08:48;19.10;72.00
11426;DHT22;5769;47.998;7.788;2023-11-19T11:11:17;19.10;72.20
11426;DHT22;5769;47.998;7.788;2023-11-19T11:13:47;19.10;72.40
11426;DHT22;5769;47.998;7.788;2023-11-19T11:16:19;19.10;72.60
11426;DHT22;5769;47.998;7.788;2023-11-19T11:18:47;19.10;72.80
11426;DHT22;5769;47.998;7.788;2023-11-19T11:21:17;19.10;72.90
11426;DHT22;5769;47.998;7.788;2023-11-19T11:24:01;19.10;73.00
11426;DHT22;5769;47.998;7.788;2023-11-19T11:27:14;19.10;73.20
11426;DHT22;5769;47.998;7.788;2023-11-19T11:29:51;19.10;73.30
11426;DHT22;5769;47.998;7.788;2023-11-19T11:32:33;19.10;73.50
11426;DHT22;5769;47.998;7.788;2023-11-19T11:35:24;19.10;73.60
11426;DHT22;5769;47.998;7.788;2023-11-19T11:38:01;19.10;73.70
11426;DHT22;5769;47.998;7.788;2023-11-19T11:40:31;19.10;73.80
11426;DHT22;5769;47.998;7.788;2023-11-19T11:46:04;19.10;74.00
11426;DHT22;5769;47.998;7.788;2023-11-19T11:48:33;19.10;74.10
11426;DHT22;5769;47.998;7.788;2023-11-19T11:51:03;19.10;74.20
11426;DHT22;5769;47.998;7.788;2023-11-19T11:53:35;19.10;74.30
11426;DHT22;5769;47.998;7.788;2023-11-19T11:56:02;19.10;75.10
11426;DHT22;5769;47.998;7.788;2023-11-19T11:58:32;19.10;74.50
11426;DHT22;5769;47.998;7.788;2023-11-19T12:01:01;19.10;74.50
11426;DHT22;5769;47.998;7.788;2023-11-19T12:03:30;19.10;74.70
11426;DHT22;5769;47.998;7.788;2023-11-19T12:05:58;19.10;74.70
11426;DHT22;5769;47.998;7.788;2023-11-19T12:08:28;19.10;74.80
11426;DHT22;5769;47.998;7.788;2023-11-19T12:10:58;19.10;75.00
11426;DHT22;5769;47.998;7.788;2023-11-19T12:13:42;19.10;75.00
11426;DHT22;5769;47.998;7.788;2023-11-19T12:16:21;19.10;75.10
11426;DHT22;5769;47.998;7.788;2023-11-19T12:18:53;19.10;75.20
11426;DHT22;5769;47.998;7.788;2023-11-19T12:21:29;19.10;75.30
11426;DHT22;5769;47.998;7.788;2023-11-19T12:23:58;19.10;75.30
11426;DHT22;5769;47.998;7.788;2023-11-19T12:26:37;19.10;75.40
11426;DHT22;5769;47.998;7.788;2023-11-19T12:29:04;19.10;75.50
11426;DHT22;5769;47.998;7.788;2023-11-19T12:31:32;19.10;75.60
11426;DHT22;5769;47.998;7.788;2023-11-19T12:34:08;19.10;75.60
11426;DHT22;5769;47.998;7.788;2023-11-19T12:36:38;19.10;75.70
11426;DHT22;5769;47.998;7.788;2023-11-19T12:39:05;19.10;75.80
11426;DHT22;5769;47.998;7.788;2023-11-19T12:41:32;19.10;75.90
11426;DHT22;5769;47.998;7.788;2023-11-19T12:44:12;19.10;75.90
11426;DHT22;5769;47.998;7.788;2023-11-19T12:46:39;19.10;75.90
11426;DHT22;5769;47.998;7.788;2023-11-19T12:49:11;19.10;76.00
11426;DHT22;5769;47.998;7.788;2023-11-19T12:51:38;19.10;76.00
11426;DHT22;5769;47.998;7.788;2023-11-19T12:54:05;19.10;76.10
11426;DHT22;5769;47.998;7.788;2023-11-19T12:56:32;19.10;76.20
11426;DHT22;5769;47.998;7.788;2023-11-19T12:59:10;19.10;76.30
11426;DHT22;5769;47.998;7.788;2023-11-19T13:01:41;19.10;76.30
11426;DHT22;5769;47.998;7.788;2023-11-19T13:04:22;19.10;76.40
11426;DHT22;5769;47.998;7.788;2023-11-19T13:06:49;19.10;76.50
11426;DHT22;5769;47.998;7.788;2023-11-19T13:09:27;19.10;76.50
11426;DHT22;5769;47.998;7.788;2023-11-19T13:12:11;19.10;76.60
11426;DHT22;5769;47.998;7.788;2023-11-19T13:14:38;19.10;76.60
11426;DHT22;5769;47.998;7.788;2023-11-19T13:17:09;19.10;76.70
11426;DHT22;5769;47.998;7.788;2023-11-19T13:19:41;19.10;76.80
11426;DHT22;5769;47.998;7.788;2023-11-19T13:22:08;19.10;76.80
11426;DHT22;5769;47.998;7.788;2023-11-19T13:24:36;19.10;76.90
11426;DHT22;5769;47.998;7.788;2023-11-19T13:27:03;19.10;77.00
11426;DHT22;5769;47.998;7.788;2023-11-19T13:29:34;19.10;77.00
11426;DHT22;5769;47.998;7.788;2023-11-19T13:32:01;19.10;77.00
11426;DHT22;5769;47.998;7.788;2023-11-19T13:34:29;19.10;77.10
11426;DHT22;5769;47.998;7.788;2023-11-19T13:37:02;19.10;77.10
11426;DHT22;5769;47.998;7.788;2023-11-19T13:39:30;19.10;77.20
11426;DHT22;5769;47.998;7.788;2023-11-19T13:41:56;19.10;77.20
11426;DHT22;5769;47.998;7.788;2023-11-19T13:44:23;19.10;77.30
11426;DHT22;5769;47.998;7.788;2023-11-19T13:46:50;19.10;77.30
11426;DHT22;5769;47.998;7.788;2023-11-19T13:49:17;19.10;77.30
11426;DHT22;5769;47.998;7.788;2023-11-19T13:51:45;19.10;77.30
11426;DHT22;5769;47.998;7.788;2023-11-19T13:54:13;19.10;77.30
11426;DHT22;5769;47.998;7.788;2023-11-19T13:56:45;19.20;77.40
11426;DHT22;5769;47.998;7.788;2023-11-19T13:59:12;19.20;77.50
11426;DHT22;5769;47.998;7.788;2023-11-19T14:01:39;19.20;77.50
11426;DHT22;5769;47.998;7.788;2023-11-19T14:04:06;19.10;77.50
11426;DHT22;5769;47.998;7.788;2023-11-19T14:06:32;19.10;77.50
11426;DHT22;5769;47.998;7.788;2023-11-19T14:08:59;19.10;77.50
11426;DHT22;5769;47.998;7.788;2023-11-19T14:11:27;19.10;77.60
11426;DHT22;5769;47.998;7.788;2023-11-19T14:13:54;19.10;77.60
11426;DHT22;5769;47.998;7.788;2023-11-19T14:16:21;19.20;77.70
11426;DHT22;5769;47.998;7.788;2023-11-19T14:18:47;19.10;77.70
11426;DHT22;5769;47.998;7.788;2023-11-19T14:21:15;19.10;77.70
11426;DHT22;5769;47.998;7.788;2023-11-19T14:23:41;19.10;77.70
11426;DHT22;5769;47.998;7.788;2023-11-19T14:26:08;19.10;77.70
11426;DHT22;5769;47.998;7.788;2023-11-19T14:28:37;19.10;77.70
11426;DHT22;5769;47.998;7.788;2023-11-19T14:31:04;19.10;77.70
11426;DHT22;5769;47.998;7.788;2023-11-19T14:33:31;19.20;77.80
11426;DHT22;5769;47.998;7.788;2023-11-19T14:36:00;19.10;77.80
11426;DHT22;5769;47.998;7.788;2023-11-19T14:38:26;19.10;77.80
11426;DHT22;5769;47.998;7.788;2023-11-19T14:40:53;19.10;77.80
11426;DHT22;5769;47.998;7.788;2023-11-19T14:43:20;19.20;77.90
11426;DHT22;5769;47.998;7.788;2023-11-19T14:45:49;19.10;77.90
11426;DHT22;5769;47.998;7.788;2023-11-19T14:48:16;19.10;77.90
11426;DHT22;5769;47.998;7.788;2023-11-19T14:50:43;19.10;77.90
11426;DHT22;5769;47.998;7.788;2023-11-19T14:53:10;19.10;77.90
11426;DHT22;5769;47.998;7.788;2023-11-19T14:55:37;19.10;77.90
11426;DHT22;5769;47.998;7.788;2023-11-19T14:58:03;19.10;78.00
11426;DHT22;5769;47.998;7.788;2023-11-19T15:00:31;19.10;78.00
11426;DHT22;5769;47.998;7.788;2023-11-19T15:02:59;19.10;78.00
11426;DHT22;5769;47.998;7.788;2023-11-19T15:05:26;19.10;78.00
11426;DHT22;5769;47.998;7.788;2023-11-19T15:07:53;19.10;78.00
11426;DHT22;5769;47.998;7.788;2023-11-19T15:10:21;19.10;78.00
11426;DHT22;5769;47.998;7.788;2023-11-19T15:12:49;19.10;78.00
11426;DHT22;5769;47.998;7.788;2023-11-19T15:15:18;19.20;78.10
11426;DHT22;5769;47.998;7.788;2023-11-19T15:17:45;19.10;78.00
11426;DHT22;5769;47.998;7.788;2023-11-19T15:20:13;19.10;78.00
11426;DHT22;5769;47.998;7.788;2023-11-19T15:22:43;19.20;78.10
11426;DHT22;5769;47.998;7.788;2023-11-19T15:25:10;19.10;78.10
11426;DHT22;5769;47.998;7.788;2023-11-19T15:27:37;19.10;78.10
11426;DHT22;5769;47.998;7.788;2023-11-19T15:30:06;19.10;78.10
11426;DHT22;5769;47.998;7.788;2023-11-19T15:32:35;19.10;78.00
11426;DHT22;5769;47.998;7.788;2023-11-19T15:35:02;19.20;77.90
11426;DHT22;5769;47.998;7.788;2023-11-19T15:37:33;19.20;77.90
11426;DHT22;5769;47.998;7.788;2023-11-19T15:40:00;19.20;77.90
11426;DHT22;5769;47.998;7.788;2023-11-19T15:42:29;19.20;78.00
11426;DHT22;5769;47.998;7.788;2023-11-19T15:44:59;19.20;78.10
11426;DHT22;5769;47.998;7.788;2023-11-19T15:47:34;19.20;78.20
11426;DHT22;5769;47.998;7.788;2023-11-19T15:50:01;19.20;78.20
11426;DHT22;5769;47.998;7.788;2023-11-19T15:52:33;19.20;78.20
11426;DHT22;5769;47.998;7.788;2023-11-19T15:55:03;19.20;78.20
11426;DHT22;5769;47.998;7.788;2023-11-19T15:57:30;19.20;79.00